Accueil
METAR-TAF:

METAR-TAF

Aéroports :

Decatur Municipal Airport

Decatur, Texas, États-Unis

latitude: 33-15-16N, longitude: 097-34-50W, altitude: 319 m

Observation

Le bulletin a été fait il y a 8 minutes, à 23:35 UTC
Vent calme
Température 35°C
Humidité 34%
Pression 1011 hPa
Visibilité: 16.1 km
Ciel clair

METAR: KLUD 212335Z AUTO 00000KT 10SM CLR 35/17 A2985 RMK AO2 T03530169

Heure: 18:43 (23:43 UTC)


TAF: absent

Observations et prévisions météorologiques de plus de 4000 aéroports (messages METAR et TAF).

Les stations disponibles sont représentées par des disques jaunes et rouges sur la carte.

Passer la souris dessus pour voir le nom de la station.

Cliquer dessus pour voir les observations et prévisions météorologiques.

Pour changer de carte: cliquez sur les boutons verts avec une croix noire pour zoomer, sur le bouton vert avec un tiret pour effectuer un zoom arrière, ou sur les flèches vertes pour les cartes adjacentes.


METAR-TAF: